VCBIVRMM

Guest
Details From VCBI - BANDARANAIKE INTL COLOMBO
To VRMM - MALE INTL
Flight Number -
Tags generated
Created
Modified
Stats Distance 420 nm / 778 km
Max Altitude 35,000 ft / 10,668 m
Waypoints 5
Social Downloads 0
Likes 0
Share VATSIM

Download

Looking for another format? Having issues loading an existing format? Contact us
Advertisement - Login to hide

Notes

Basic altitude profile: - Ascent Rate: 2500ft/min - Ascent Speed: 250kts - Cruise Altitude: 34000ft - Cruise Speed: 420kts - Descent Rate: 1500ft/min - Descent Speed: 250kts Options: - Use NATs: yes - Use PACOTS: yes - Use low airways: yes - Use high airways: yes

Route

VCBI SUPSA G465 DOPDO VRMM

ID Type Via Altitude Latitude Longitude Leg Dist Tot Dist Heading (true) Name
O VCBI APT - 0 ft / 0 m 7.18075˚ 79.88412˚ - 0 nm - BANDARANAIKE INTL COLOMBO
SUPSA FIX - 19,600 ft / 5,974 m 6.78367˚ 79.05223˚ 55 nm 55 nm 244° / 244° -
SEBLO FIX G465 (AWY-LO) 35,000 ft / 10,668 m 6.00000˚ 77.50000˚ 103 nm 158 nm 243° / 243° -
DOPDO FIX G465 (AWY-LO) 10,700 ft / 3,261 m 4.54139˚ 74.28944˚ 211 nm 369 nm 246° / 245° -
O VRMM APT - 0 ft / 0 m 4.19183˚ 73.52913˚ 50 nm 420 nm 245° / 245° MALE INTL

Altitude Profile

Advertisement - Login to hide

Weather


0- 5 10 15 20 25 30 35+ Temperature / ° C

Clouds and Precipitation
Forecast for 2018-07-19 06:00 UTC. Updated 2 hours ago

Ground ~20,000 ft ~40,000 ft Winds

VCBI

Details ICAO VCBI (CMB)
Name BANDARANAIKE INTL COLOMBO
Region Sri Lanka
Timezone Asia/Colombo (UTC+5.5)
Stats Elevation 30 ft / 9 m (AMSL)
Location 7.180754° 79.884118°
Runways 1
Magnetic Variation 2.025° W

METAR

VCBI 190510Z 23012KT 190V270 9999 BKN016 28/25 Q1010 NOSIG

Decode

TAF

Not found

Departure Runways

ID Width Length Bearing (true) Bearing (mag) Surface Threshold Offset Overrun Length
04 148 ft / 45 m 11,018 ft / 3,358 m 37.25° 39.28° Asphalt 0 ft / 0 m 215 ft / 66 m
22 148 ft / 45 m 11,018 ft / 3,358 m 217.25° 219.28° Asphalt 0 ft / 0 m 300 ft / 91 m

VRMM

Details ICAO VRMM (MLE)
Name MALE INTL
Region Maldives
Timezone Indian/Maldives (UTC+5.0)
Stats Elevation 6 ft / 2 m (AMSL)
Location 4.191832° 73.529128°
Runways 1
Magnetic Variation 2.789° W

METAR

VRMM 190500Z 29014KT 9999 FEW017TCU OVC260 30/25 Q1011 TEMPO FEW017CB

Decode

TAF

TAF VRMM 190500Z 1906/2012 29016KT 9999 FEW017 BKN120 TEMPO 1908/1915 32018G32KT 4000 SHRA SCT017CB

Decode

Destination Runways

ID Width Length Bearing (true) Bearing (mag) Surface Threshold Offset Overrun Length
18 148 ft / 45 m 10,556 ft / 3,218 m 179.06° 181.85° Asphalt 328 ft / 100 m 201 ft / 61 m
36 148 ft / 45 m 10,556 ft / 3,218 m 359.06° 1.85° Asphalt 952 ft / 290 m 238 ft / 73 m

Approach Navaids

Runway Type Ident Frequency Range Bearing (true) Bearing (mag) Slope Elevation
36 Localiser IML 108.70 MHz 18 nm / 33 km 359.58° 2.37° - 5 ft / 2 m (AMSL)
36 Glidescope IML 108.70 MHz 10 nm / 19 km 359.06° 1.85° 3.00° 5 ft / 2 m (AMSL)
36 DME IML 108.70 MHz 18 nm / 33 km - - - 22 ft / 7 m (AMSL)

Popular Alternatives